Chauvin, Canada
Current Conditions -  °F | °C
As of 4:00 AM on Monday 26 Jan 2015 (Local Time) from CYLL Reporting Station
Overcast Overcast  
Wind Chill: 26°   Ceiling: 7000
Heat Index: 34°   Visibility: 9mi
Dew Point: 28°   Wind: 9mph
Humidity: 81%   Direction: 250°WSW
Pressure: 29.83"   Gusts: NA
Location:  52.68°N, 110.13°W
Report Text: CYLL 261100Z AUTO 25008KT 9SM BKN070 OVC097 01/M02 A2983 RMK SLP127
Loading
Personal Weather Stations






























Interactive Weather Map New forecast layout! Learn more

10-Day Weather Forecast

Advertisements
Track Severe Weather on mobile